createdAt,value
2018-11-26T00:00:54.399Z,47.80
2018-11-26T00:03:23.662Z,47.90
2018-11-26T00:05:52.898Z,47.90
2018-11-26T00:08:22.288Z,48.00
2018-11-26T00:12:00.286Z,48.00
2018-11-26T00:14:29.553Z,48.00
2018-11-26T00:16:59.087Z,48.10
2018-11-26T00:19:28.325Z,48.20
2018-11-26T00:21:57.654Z,48.20
2018-11-26T00:24:26.910Z,48.10
2018-11-26T00:26:56.326Z,48.20
2018-11-26T00:29:25.562Z,48.20
2018-11-26T00:31:54.830Z,48.20
2018-11-26T00:34:24.175Z,48.20
2018-11-26T00:36:53.442Z,48.10
2018-11-26T00:39:22.672Z,48.00
2018-11-26T00:41:51.997Z,48.00
2018-11-26T00:44:21.325Z,47.90
2018-11-26T00:46:50.565Z,47.80
2018-11-26T00:49:19.889Z,47.70
2018-11-26T00:51:49.177Z,47.70
2018-11-26T00:54:18.502Z,47.60
2018-11-26T00:56:47.740Z,47.60
2018-11-26T00:59:17.021Z,47.60
2018-11-26T01:01:46.241Z,47.60
2018-11-26T01:04:15.573Z,47.80
2018-11-26T01:06:44.785Z,48.30
2018-11-26T01:09:14.150Z,47.80
2018-11-26T01:11:43.438Z,47.80
2018-11-26T01:14:12.814Z,47.70
2018-11-26T01:16:42.186Z,47.70
2018-11-26T01:19:11.478Z,47.60
2018-11-26T01:21:40.705Z,47.70
2018-11-26T01:24:10.093Z,47.70
2018-11-26T01:26:39.311Z,47.60
2018-11-26T01:29:08.607Z,47.60
2018-11-26T01:31:37.853Z,47.50
2018-11-26T01:34:07.118Z,47.30
2018-11-26T01:36:36.433Z,47.40
2018-11-26T01:39:08.213Z,47.30
2018-11-26T01:41:37.732Z,47.40
2018-11-26T01:44:07.063Z,47.20
2018-11-26T01:46:36.305Z,47.20
2018-11-26T01:49:05.849Z,47.10
2018-11-26T01:51:35.291Z,47.10
2018-11-26T01:54:04.534Z,47.10
2018-11-26T01:56:33.786Z,47.20
2018-11-26T01:59:03.080Z,47.00
2018-11-26T02:01:32.366Z,47.30
2018-11-26T02:04:01.659Z,47.30
2018-11-26T02:06:30.958Z,47.20
2018-11-26T02:09:00.254Z,47.00
2018-11-26T02:11:29.521Z,47.00
2018-11-26T02:13:58.843Z,46.90
2018-11-26T02:16:28.141Z,46.90
2018-11-26T02:18:57.575Z,46.90
2018-11-26T02:21:26.906Z,46.80
2018-11-26T02:23:56.197Z,46.60
2018-11-26T02:26:25.492Z,46.70
2018-11-26T02:28:54.729Z,46.70
2018-11-26T02:31:23.987Z,46.80
2018-11-26T02:33:53.262Z,46.70
2018-11-26T02:36:22.547Z,46.70
2018-11-26T02:38:51.892Z,46.70
2018-11-26T02:41:21.211Z,46.80
2018-11-26T02:43:50.500Z,46.80
2018-11-26T02:46:19.813Z,46.80
2018-11-26T02:48:49.229Z,46.80
2018-11-26T02:51:18.610Z,46.80
2018-11-26T02:53:47.869Z,46.70
2018-11-26T02:56:17.227Z,47.40
2018-11-26T02:58:46.554Z,46.70
2018-11-26T03:01:15.814Z,46.70
2018-11-26T03:03:45.113Z,46.90
2018-11-26T03:06:14.445Z,46.70
2018-11-26T03:08:43.831Z,46.70
2018-11-26T03:11:13.091Z,46.50
2018-11-26T03:13:42.477Z,46.70
2018-11-26T03:16:11.893Z,46.70
2018-11-26T03:18:41.181Z,46.70
2018-11-26T03:21:10.489Z,46.60
2018-11-26T03:23:39.834Z,46.40
2018-11-26T03:26:09.123Z,46.40
2018-11-26T03:28:38.464Z,46.40
2018-11-26T03:31:08.819Z,46.40
2018-11-26T03:33:38.279Z,46.50
2018-11-26T03:36:07.714Z,46.30
2018-11-26T03:38:44.885Z,46.20
2018-11-26T03:41:14.221Z,46.20
2018-11-26T03:43:43.470Z,46.20
2018-11-26T03:46:12.812Z,46.10
2018-11-26T03:48:42.214Z,46.00
2018-11-26T03:51:11.619Z,46.70
2018-11-26T03:53:41.011Z,46.00
2018-11-26T03:56:10.439Z,46.00
2018-11-26T03:58:39.808Z,46.00
2018-11-26T04:01:09.079Z,45.80
2018-11-26T04:03:38.322Z,45.70
2018-11-26T04:06:07.711Z,45.80
2018-11-26T04:08:37.053Z,45.60
2018-11-26T04:11:06.976Z,45.50
2018-11-26T04:13:36.404Z,45.60
2018-11-26T04:16:05.752Z,45.60
2018-11-26T04:18:35.082Z,45.60
2018-11-26T04:21:04.494Z,45.50
2018-11-26T04:23:33.783Z,45.30
2018-11-26T04:26:03.079Z,45.40
2018-11-26T04:28:32.362Z,45.40
2018-11-26T04:31:01.703Z,45.40
2018-11-26T04:33:31.089Z,45.40
2018-11-26T04:36:00.474Z,45.50
2018-11-26T04:38:29.778Z,45.30
2018-11-26T04:40:59.153Z,45.30
2018-11-26T04:43:28.509Z,45.60
2018-11-26T04:45:57.934Z,45.10
2018-11-26T04:48:27.189Z,45.20
2018-11-26T04:50:56.624Z,45.30
2018-11-26T04:53:25.997Z,45.30
2018-11-26T04:55:55.269Z,45.30
2018-11-26T04:58:24.599Z,45.30
2018-11-26T05:00:53.858Z,45.30
2018-11-26T05:03:23.177Z,45.40
2018-11-26T05:05:52.493Z,45.40
2018-11-26T05:08:21.935Z,45.50
2018-11-26T05:10:51.278Z,45.60
2018-11-26T05:13:20.603Z,45.60
2018-11-26T05:15:49.882Z,45.50
2018-11-26T05:18:19.133Z,45.60
2018-11-26T05:20:48.474Z,45.60
2018-11-26T05:23:17.769Z,45.60
2018-11-26T05:25:47.046Z,45.60
2018-11-26T05:28:16.299Z,45.70
2018-11-26T05:30:45.709Z,45.70
2018-11-26T05:33:15.113Z,45.90
2018-11-26T05:35:44.366Z,45.80
2018-11-26T05:38:13.616Z,45.80
2018-11-26T05:40:43.003Z,46.50
2018-11-26T05:43:12.480Z,45.80
2018-11-26T05:45:41.775Z,45.80
2018-11-26T05:48:11.087Z,45.80
2018-11-26T05:50:40.414Z,45.40
2018-11-26T05:53:09.786Z,45.90
2018-11-26T05:55:39.109Z,45.80
2018-11-26T05:58:08.412Z,45.90
2018-11-26T06:00:37.849Z,45.80
2018-11-26T06:03:07.416Z,45.80
2018-11-26T06:05:36.670Z,45.80
2018-11-26T06:08:06.022Z,45.80
2018-11-26T06:10:35.330Z,45.80
2018-11-26T06:13:04.606Z,45.80
2018-11-26T06:15:33.955Z,45.70
2018-11-26T06:18:03.182Z,45.70
2018-11-26T06:20:32.462Z,45.80
2018-11-26T06:23:01.790Z,45.80
2018-11-26T06:25:31.214Z,45.80
2018-11-26T06:28:00.592Z,45.70
2018-11-26T06:30:29.902Z,45.80
2018-11-26T06:32:59.266Z,45.80
2018-11-26T06:35:28.631Z,45.70
2018-11-26T06:37:57.943Z,45.50
2018-11-26T06:40:27.238Z,45.50
2018-11-26T06:42:56.534Z,45.50
2018-11-26T06:45:25.866Z,45.30
2018-11-26T06:47:55.175Z,45.20
2018-11-26T06:50:24.423Z,45.20
2018-11-26T06:52:53.722Z,45.20
2018-11-26T06:55:22.998Z,45.20
2018-11-26T06:57:52.722Z,45.20
2018-11-26T07:00:22.126Z,45.10
2018-11-26T07:02:51.338Z,45.10
2018-11-26T07:05:21.921Z,45.20
2018-11-26T07:07:51.286Z,45.10
2018-11-26T07:10:21.397Z,45.20
2018-11-26T07:12:50.775Z,45.20
2018-11-26T07:15:22.288Z,45.30
2018-11-26T07:17:51.851Z,45.40
2018-11-26T07:20:22.114Z,45.30
2018-11-26T07:22:51.447Z,45.30
2018-11-26T07:25:21.822Z,45.30
2018-11-26T07:27:53.287Z,45.20
2018-11-26T07:30:24.580Z,45.30
2018-11-26T07:32:53.897Z,45.30
2018-11-26T07:35:23.158Z,45.50
2018-11-26T07:37:52.429Z,45.50
2018-11-26T07:40:23.538Z,45.40
2018-11-26T07:42:55.414Z,45.40
2018-11-26T07:45:24.830Z,45.40
2018-11-26T07:47:54.138Z,45.50
2018-11-26T07:50:23.388Z,45.50
2018-11-26T07:52:52.731Z,45.40
2018-11-26T07:55:22.409Z,45.30
2018-11-26T07:57:51.765Z,45.20
2018-11-26T08:00:22.080Z,45.20
2018-11-26T08:02:51.750Z,45.10
2018-11-26T08:05:22.201Z,45.00
2018-11-26T08:07:51.589Z,44.90
2018-11-26T08:10:22.178Z,45.00
2018-11-26T08:12:52.731Z,45.00
2018-11-26T08:15:25.010Z,45.10
2018-11-26T08:17:54.345Z,45.00
2018-11-26T08:20:23.649Z,44.80
2018-11-26T08:22:53.018Z,44.80
2018-11-26T08:25:23.299Z,44.80
2018-11-26T08:27:52.960Z,44.70
2018-11-26T08:30:25.111Z,44.80
2018-11-26T08:32:56.503Z,44.80
2018-11-26T08:35:25.945Z,44.70
2018-11-26T08:38:00.465Z,44.80
2018-11-26T08:40:31.011Z,44.80
2018-11-26T08:43:07.179Z,44.60
2018-11-26T08:45:37.306Z,44.40
2018-11-26T08:48:12.115Z,44.20
2018-11-26T08:50:41.522Z,44.30
2018-11-26T08:53:10.806Z,44.40
2018-11-26T08:55:40.186Z,44.40
2018-11-26T08:58:09.476Z,44.40
2018-11-26T09:00:38.839Z,44.30
2018-11-26T09:03:13.549Z,44.10
2018-11-26T09:06:02.195Z,43.90
2018-11-26T09:08:32.630Z,43.80
2018-11-26T09:11:02.816Z,44.10
2018-11-26T09:13:32.175Z,44.30
2018-11-26T09:16:01.579Z,44.50
2018-11-26T09:18:30.862Z,44.80
2018-11-26T09:21:00.190Z,44.90
2018-11-26T09:23:29.480Z,44.90
2018-11-26T09:25:58.778Z,44.80
2018-11-26T09:28:28.085Z,44.80
2018-11-26T09:30:57.431Z,44.80
2018-11-26T09:33:26.854Z,44.50
2018-11-26T09:35:56.263Z,44.20
2018-11-26T09:38:25.604Z,43.90
2018-11-26T09:40:55.189Z,43.90
2018-11-26T09:43:24.542Z,44.10
2018-11-26T09:45:53.862Z,44.20
2018-11-26T09:48:23.185Z,44.40
2018-11-26T09:50:52.560Z,44.30
2018-11-26T09:53:21.802Z,44.30
2018-11-26T09:55:51.374Z,44.40
2018-11-26T09:58:20.707Z,44.40
2018-11-26T10:00:50.009Z,44.50
2018-11-26T10:03:19.281Z,44.30
2018-11-26T10:05:48.634Z,44.30
2018-11-26T10:08:17.973Z,44.50
2018-11-26T10:10:47.336Z,44.60
2018-11-26T10:13:16.659Z,44.70
2018-11-26T10:15:46.024Z,44.70
2018-11-26T10:18:15.296Z,44.70
2018-11-26T10:20:44.616Z,44.70
2018-11-26T10:23:13.959Z,44.70
2018-11-26T10:25:43.291Z,44.50
2018-11-26T10:28:12.613Z,44.60
2018-11-26T10:30:41.947Z,44.70
2018-11-26T10:33:14.930Z,44.70
2018-11-26T10:35:40.698Z,44.60
2018-11-26T10:38:09.967Z,44.40
2018-11-26T10:40:39.316Z,44.40
2018-11-26T10:43:11.767Z,44.60
2018-11-26T10:45:38.527Z,44.80
2018-11-26T10:48:08.233Z,44.80
2018-11-26T10:50:37.545Z,44.90
2018-11-26T10:53:07.091Z,44.80
2018-11-26T10:55:37.067Z,44.70
2018-11-26T10:58:06.910Z,44.70
2018-11-26T11:00:41.491Z,44.70
2018-11-26T11:03:10.813Z,44.80
2018-11-26T11:05:40.158Z,44.80
2018-11-26T11:08:09.633Z,44.70
2018-11-26T11:10:39.009Z,44.60
2018-11-26T11:13:08.697Z,44.70
2018-11-26T11:15:38.603Z,44.80
2018-11-26T11:18:08.623Z,44.90
2018-11-26T11:20:38.048Z,45.00
2018-11-26T11:23:08.746Z,45.00
2018-11-26T11:25:38.491Z,45.10
2018-11-26T11:28:07.890Z,45.30
2018-11-26T11:30:37.163Z,45.30
2018-11-26T11:35:35.675Z,45.30
2018-11-26T11:38:05.048Z,45.30
2018-11-26T11:40:34.389Z,45.30
2018-11-26T11:43:03.617Z,45.40
2018-11-26T11:45:34.058Z,45.40
2018-11-26T11:48:03.480Z,45.60
2018-11-26T11:50:32.753Z,45.40
2018-11-26T11:53:02.021Z,45.40
2018-11-26T11:55:31.417Z,45.40
2018-11-26T11:58:01.734Z,45.50
2018-11-26T12:00:36.502Z,45.50
2018-11-26T12:03:11.613Z,45.40
2018-11-26T12:05:40.976Z,45.40
2018-11-26T12:08:10.371Z,45.50
2018-11-26T12:10:39.641Z,45.50
2018-11-26T12:13:10.467Z,45.60
2018-11-26T12:15:42.229Z,45.60
2018-11-26T12:18:12.440Z,45.60
2018-11-26T12:20:41.718Z,45.50
2018-11-26T12:23:11.038Z,45.40
2018-11-26T12:25:40.382Z,45.50
2018-11-26T12:28:09.792Z,45.50
2018-11-26T12:30:41.647Z,45.60
2018-11-26T12:33:10.941Z,45.50
2018-11-26T12:35:40.304Z,45.30
2018-11-26T12:38:09.623Z,45.40
2018-11-26T12:40:39.051Z,45.40
2018-11-26T12:43:08.520Z,45.40
2018-11-26T12:45:37.849Z,45.30
2018-11-26T12:48:07.172Z,45.30
2018-11-26T12:50:36.529Z,45.30
2018-11-26T12:53:05.900Z,45.30
2018-11-26T12:55:36.902Z,45.40
2018-11-26T12:58:07.341Z,45.40
2018-11-26T13:00:37.756Z,45.40
2018-11-26T13:03:10.534Z,45.10
2018-11-26T13:05:39.809Z,45.50
2018-11-26T13:08:09.601Z,45.60
2018-11-26T13:10:39.233Z,45.60
2018-11-26T13:13:09.986Z,45.50
2018-11-26T13:15:39.309Z,45.40
2018-11-26T13:18:08.654Z,44.90
2018-11-26T13:20:37.978Z,44.80
2018-11-26T13:23:08.760Z,44.90
2018-11-26T13:25:41.667Z,45.00
2018-11-26T13:28:09.685Z,45.00
2018-11-26T13:30:42.628Z,45.10
2018-11-26T13:33:14.142Z,45.20
2018-11-26T13:35:44.628Z,45.30
2018-11-26T13:38:14.121Z,45.30
2018-11-26T13:40:43.392Z,45.30
2018-11-26T13:43:17.814Z,45.30
2018-11-26T13:45:48.498Z,45.20
2018-11-26T13:48:18.807Z,45.30
2018-11-26T13:50:52.487Z,45.30
2018-11-26T13:53:21.901Z,45.20
2018-11-26T13:55:51.273Z,45.20
2018-11-26T13:58:20.642Z,45.20
2018-11-26T14:00:49.909Z,45.30
2018-11-26T14:03:19.227Z,45.20
2018-11-26T14:05:48.439Z,45.30
2018-11-26T14:08:17.686Z,45.40
2018-11-26T14:10:47.003Z,45.40
2018-11-26T14:13:16.936Z,45.40
2018-11-26T14:15:46.305Z,45.50
2018-11-26T14:18:15.672Z,45.40
2018-11-26T14:20:44.956Z,45.50
2018-11-26T14:23:14.206Z,45.50
2018-11-26T14:25:43.555Z,45.50
2018-11-26T14:28:12.852Z,45.60
2018-11-26T14:30:42.278Z,45.60
2018-11-26T14:33:11.850Z,45.60
2018-11-26T14:35:41.556Z,45.70
2018-11-26T14:38:11.081Z,45.80
2018-11-26T14:40:46.038Z,45.90
2018-11-26T14:43:15.300Z,45.90
2018-11-26T14:45:44.592Z,45.90
2018-11-26T14:48:14.050Z,45.90
2018-11-26T14:50:43.403Z,46.00
2018-11-26T14:53:14.604Z,46.00
2018-11-26T14:55:43.889Z,46.00
2018-11-26T14:58:13.344Z,46.00
2018-11-26T15:00:42.721Z,46.00
2018-11-26T15:03:12.020Z,45.90
2018-11-26T15:05:41.375Z,45.90
2018-11-26T15:08:10.680Z,45.90
2018-11-26T15:10:40.035Z,45.90
2018-11-26T15:13:09.409Z,45.90
2018-11-26T15:15:38.831Z,45.90
2018-11-26T15:18:08.124Z,46.00
2018-11-26T15:20:37.422Z,46.00
2018-11-26T15:23:07.163Z,46.10
2018-11-26T15:25:36.490Z,45.60
2018-11-26T15:28:08.509Z,46.20
2018-11-26T15:30:37.810Z,46.30
2018-11-26T15:33:07.519Z,46.30
2018-11-26T15:35:36.944Z,46.30
2018-11-26T15:38:06.479Z,46.40
2018-11-26T15:40:35.915Z,46.40
2018-11-26T15:43:05.632Z,46.60
2018-11-26T15:45:35.080Z,46.50
2018-11-26T15:48:07.371Z,46.60
2018-11-26T15:50:36.739Z,46.60
2018-11-26T15:53:06.668Z,46.60
2018-11-26T15:55:36.019Z,46.60
2018-11-26T15:58:06.001Z,46.60
2018-11-26T16:00:35.368Z,46.60
2018-11-26T16:03:04.878Z,46.60
2018-11-26T16:05:34.295Z,46.60
2018-11-26T16:08:07.468Z,46.60
2018-11-26T16:10:36.888Z,46.70
2018-11-26T16:13:07.833Z,46.70
2018-11-26T16:15:38.776Z,46.70
2018-11-26T16:18:13.834Z,46.70
2018-11-26T16:20:43.092Z,46.80
2018-11-26T16:23:12.541Z,46.80
2018-11-26T16:25:43.228Z,46.80
2018-11-26T16:28:14.617Z,46.80
2018-11-26T16:30:43.986Z,46.80
2018-11-26T16:33:13.384Z,46.90
2018-11-26T16:35:42.782Z,46.90
2018-11-26T16:38:12.576Z,46.80
2018-11-26T16:40:41.844Z,46.80
2018-11-26T16:43:11.216Z,46.90
2018-11-26T16:45:40.549Z,46.90
2018-11-26T16:48:09.810Z,46.90
2018-11-26T16:50:39.171Z,46.90
2018-11-26T16:53:08.756Z,46.90
2018-11-26T16:55:38.057Z,46.90
2018-11-26T16:58:07.513Z,46.90
2018-11-26T17:00:37.019Z,46.90
2018-11-26T17:03:06.527Z,46.80
2018-11-26T17:05:41.186Z,46.80
2018-11-26T17:08:12.346Z,47.60
2018-11-26T17:10:41.889Z,46.80
2018-11-26T17:13:13.019Z,46.80
2018-11-26T17:15:42.584Z,46.80
2018-11-26T17:18:11.843Z,46.80
2018-11-26T17:20:41.289Z,46.80
2018-11-26T17:23:10.581Z,46.90
2018-11-26T17:25:40.029Z,47.00
2018-11-26T17:28:09.275Z,47.00
2018-11-26T17:30:39.758Z,47.10
2018-11-26T17:33:10.451Z,47.00
2018-11-26T17:35:39.858Z,47.10
2018-11-26T17:38:09.410Z,47.10
2018-11-26T17:40:39.720Z,47.20
2018-11-26T17:43:10.613Z,47.20
2018-11-26T17:45:39.964Z,47.20
2018-11-26T17:48:09.286Z,47.20
2018-11-26T17:50:41.063Z,47.30
2018-11-26T17:53:20.464Z,47.20
2018-11-26T17:55:51.819Z,47.20
2018-11-26T17:58:22.460Z,47.20
2018-11-26T18:01:28.858Z,47.30
2018-11-26T18:03:58.232Z,47.30
2018-11-26T18:06:27.707Z,47.30
2018-11-26T18:08:56.987Z,47.30
2018-11-26T18:11:26.300Z,47.30
2018-11-26T18:13:55.707Z,47.30
2018-11-26T18:16:25.223Z,47.20
2018-11-26T18:18:54.649Z,47.20
2018-11-26T18:21:23.949Z,47.20
2018-11-26T18:23:53.251Z,47.10
2018-11-26T18:26:22.640Z,47.20
2018-11-26T18:28:51.990Z,47.20
2018-11-26T18:31:21.384Z,47.20
2018-11-26T18:33:50.612Z,47.20
2018-11-26T18:36:19.927Z,47.10
2018-11-26T18:38:49.203Z,47.20
2018-11-26T18:41:18.535Z,47.10
2018-11-26T18:43:48.037Z,47.20
2018-11-26T18:46:17.401Z,47.20
2018-11-26T18:48:46.730Z,47.20
2018-11-26T18:51:16.082Z,47.20
2018-11-26T18:53:45.408Z,47.20
2018-11-26T18:56:14.727Z,47.10
2018-11-26T18:58:44.040Z,47.10
2018-11-26T19:01:13.571Z,47.20
2018-11-26T19:03:43.008Z,47.10
2018-11-26T19:06:12.297Z,47.00
2018-11-26T19:08:41.619Z,47.00
2018-11-26T19:11:13.115Z,47.00
2018-11-26T19:13:52.639Z,46.90
2018-11-26T19:16:24.043Z,47.00
2018-11-26T19:18:53.627Z,47.00
2018-11-26T19:21:22.894Z,47.00
2018-11-26T19:23:52.140Z,46.90
2018-11-26T19:26:21.579Z,46.90
2018-11-26T19:28:50.897Z,46.90
2018-11-26T19:31:20.286Z,46.80
2018-11-26T19:33:49.584Z,46.80
2018-11-26T19:36:18.934Z,46.80
2018-11-26T19:38:48.213Z,46.80
2018-11-26T19:41:17.546Z,46.80
2018-11-26T19:43:46.819Z,46.80
2018-11-26T19:46:16.338Z,46.80
2018-11-26T19:48:45.651Z,46.80
2018-11-26T19:51:14.979Z,46.70
2018-11-26T19:53:50.587Z,46.70
2018-11-26T19:56:20.040Z,46.80
2018-11-26T19:58:49.441Z,46.80
2018-11-26T20:01:18.902Z,46.90
2018-11-26T20:03:51.075Z,46.90
2018-11-26T20:06:22.236Z,46.90
2018-11-26T20:08:53.288Z,46.90
2018-11-26T20:11:22.694Z,46.90
2018-11-26T20:13:52.030Z,47.00
2018-11-26T20:16:25.191Z,46.90
2018-11-26T20:18:54.636Z,47.10
2018-11-26T20:21:23.987Z,47.00
2018-11-26T20:23:54.286Z,47.00
2018-11-26T20:26:23.752Z,47.10
2018-11-26T20:28:56.987Z,47.30
2018-11-26T20:31:22.631Z,47.00
2018-11-26T20:33:52.284Z,47.10
2018-11-26T20:36:22.301Z,47.00
2018-11-26T20:38:51.796Z,47.00
2018-11-26T20:41:21.206Z,47.00
2018-11-26T20:43:50.534Z,47.00
2018-11-26T20:46:19.908Z,47.00
2018-11-26T20:48:49.307Z,47.10
2018-11-26T20:51:18.792Z,47.10
2018-11-26T20:53:48.228Z,47.00
2018-11-26T20:56:18.693Z,46.90
2018-11-26T20:58:48.394Z,47.00
2018-11-26T21:01:17.835Z,46.90
2018-11-26T21:03:47.440Z,46.80
2018-11-26T21:06:17.758Z,46.80
2018-11-26T21:08:47.251Z,46.80
2018-11-26T21:11:16.776Z,46.80
2018-11-26T21:13:46.152Z,46.80
2018-11-26T21:16:15.556Z,47.40
2018-11-26T21:18:44.960Z,46.90
2018-11-26T21:21:14.416Z,46.90
2018-11-26T21:23:43.792Z,46.80
2018-11-26T21:26:13.403Z,46.80
2018-11-26T21:28:42.712Z,46.80
2018-11-26T21:31:12.038Z,46.80
2018-11-26T21:33:41.457Z,46.70
2018-11-26T21:36:10.830Z,46.80
2018-11-26T21:38:41.230Z,46.80
2018-11-26T21:41:10.570Z,46.80
2018-11-26T21:43:39.963Z,46.80
2018-11-26T21:46:09.621Z,46.80
2018-11-26T21:48:38.996Z,46.70
2018-11-26T21:51:08.400Z,46.70
2018-11-26T21:53:37.687Z,46.70
2018-11-26T21:56:07.141Z,46.80
2018-11-26T21:58:36.405Z,46.70
2018-11-26T22:01:08.244Z,46.80
2018-11-26T22:03:37.893Z,46.80
2018-11-26T22:06:07.346Z,46.80
2018-11-26T22:08:36.845Z,46.70
2018-11-26T22:11:06.424Z,46.70
2018-11-26T22:13:35.715Z,46.70
2018-11-26T22:16:05.143Z,46.60
2018-11-26T22:18:34.487Z,46.60
2018-11-26T22:21:03.844Z,46.60
2018-11-26T22:23:33.239Z,46.60
2018-11-26T22:26:02.560Z,46.50
2018-11-26T22:28:31.930Z,46.40
2018-11-26T22:31:01.272Z,46.30
2018-11-26T22:33:30.623Z,46.20
2018-11-26T22:36:00.002Z,46.10
2018-11-26T22:38:29.390Z,45.90
2018-11-26T22:40:58.710Z,45.80
2018-11-26T22:43:27.957Z,45.90
2018-11-26T22:45:57.270Z,45.90
2018-11-26T22:48:26.534Z,46.00
2018-11-26T22:50:55.881Z,45.90
2018-11-26T22:53:25.355Z,45.90
2018-11-26T22:55:54.706Z,45.90
2018-11-26T22:58:24.011Z,45.80
2018-11-26T23:00:55.300Z,45.70
2018-11-26T23:03:25.995Z,45.70
2018-11-26T23:05:55.353Z,45.60
2018-11-26T23:08:24.615Z,45.60
2018-11-26T23:10:53.983Z,45.50
2018-11-26T23:13:23.376Z,45.60
2018-11-26T23:15:52.757Z,45.50
2018-11-26T23:18:22.131Z,45.40
2018-11-26T23:20:51.447Z,45.20
2018-11-26T23:23:20.788Z,45.10
2018-11-26T23:25:50.120Z,44.90
2018-11-26T23:28:19.402Z,44.80
2018-11-26T23:30:48.670Z,44.80
2018-11-26T23:33:17.989Z,44.80
2018-11-26T23:35:47.419Z,44.70
2018-11-26T23:38:16.791Z,44.60
2018-11-26T23:40:46.102Z,44.60
2018-11-26T23:43:15.338Z,44.40
2018-11-26T23:45:44.611Z,44.40
2018-11-26T23:48:13.925Z,44.40
2018-11-26T23:50:43.280Z,44.40
2018-11-26T23:53:12.579Z,44.50
2018-11-26T23:55:41.867Z,44.60
2018-11-26T23:58:11.287Z,44.60
